createdAt,value
2022-12-08T00:00:52.671Z,98182.25
2022-12-08T00:03:19.638Z,98178.09
2022-12-08T00:06:06.928Z,98179.78
2022-12-08T00:08:52.616Z,98177.19
2022-12-08T00:11:20.038Z,98179.91
2022-12-08T00:13:46.997Z,98171.25
2022-12-08T00:16:13.798Z,98176.25
2022-12-08T00:18:40.577Z,98148.84
2022-12-08T00:21:07.353Z,98167.66
2022-12-08T00:23:34.050Z,98166.84
2022-12-08T00:26:05.126Z,98159.75
2022-12-08T00:28:33.323Z,98158.84
2022-12-08T00:31:00.707Z,98154.72
2022-12-08T00:33:30.564Z,98145.22
2022-12-08T00:35:57.297Z,98151.69
2022-12-08T00:38:23.999Z,98146.56
2022-12-08T00:40:50.694Z,98147.44
2022-12-08T00:43:17.420Z,98152.66
2022-12-08T00:45:44.223Z,98144.03
2022-12-08T00:48:11.007Z,98154.38
2022-12-08T00:50:37.746Z,98149.94
2022-12-08T00:53:05.029Z,98147.25
2022-12-08T00:55:31.753Z,98147.16
2022-12-08T00:57:58.496Z,98141.13
2022-12-08T01:00:25.195Z,98141.69
2022-12-08T01:02:51.960Z,98143.28
2022-12-08T01:05:18.838Z,98147.44
2022-12-08T01:07:45.734Z,98149.97
2022-12-08T01:10:12.471Z,98145.69
2022-12-08T01:12:39.216Z,98136.84
2022-12-08T01:15:06.280Z,98137.66
2022-12-08T01:17:33.080Z,98140.31
2022-12-08T01:19:59.867Z,98141.94
2022-12-08T01:22:26.650Z,98146.22
2022-12-08T01:24:53.378Z,98141.75
2022-12-08T01:27:20.154Z,98145.16
2022-12-08T01:29:46.837Z,98144.22
2022-12-08T01:32:13.540Z,98132.03
2022-12-08T01:34:40.299Z,98119.00
2022-12-08T01:37:07.003Z,98125.81
2022-12-08T01:39:34.850Z,98132.00
2022-12-08T01:42:01.566Z,98128.56
2022-12-08T01:44:28.228Z,98127.78
2022-12-08T01:46:55.456Z,98131.31
2022-12-08T01:49:24.655Z,98133.19
2022-12-08T01:51:55.051Z,98128.72
2022-12-08T01:54:26.480Z,98126.44
2022-12-08T01:57:01.121Z,98130.59
2022-12-08T01:59:30.436Z,98121.88
2022-12-08T02:01:58.021Z,98110.56
2022-12-08T02:04:24.747Z,98108.19
2022-12-08T02:06:52.759Z,98107.13
2022-12-08T02:09:20.289Z,98093.13
2022-12-08T02:11:47.684Z,98102.66
2022-12-08T02:14:15.019Z,98087.91
2022-12-08T02:17:02.309Z,98092.06
2022-12-08T02:20:08.423Z,98087.66
2022-12-08T02:23:09.607Z,98081.53
2022-12-08T02:26:10.371Z,98091.97
2022-12-08T02:29:12.526Z,98092.78
2022-12-08T02:32:05.283Z,98084.03
2022-12-08T02:34:39.824Z,98087.69
2022-12-08T02:37:23.620Z,98086.06
2022-12-08T02:40:05.832Z,98089.53
2022-12-08T02:42:38.847Z,98082.66
2022-12-08T02:45:18.490Z,98081.06
2022-12-08T02:47:45.388Z,98076.00
2022-12-08T02:50:12.384Z,98076.66
2022-12-08T02:52:44.538Z,98077.50
2022-12-08T02:55:28.129Z,98070.88
2022-12-08T02:58:21.066Z,98065.03
2022-12-08T03:01:14.085Z,98062.66
2022-12-08T03:04:00.091Z,98065.25
2022-12-08T03:06:53.247Z,98060.66
2022-12-08T03:09:44.554Z,98059.03
2022-12-08T03:12:39.243Z,98052.03
2022-12-08T03:15:12.830Z,98054.72
2022-12-08T03:17:45.568Z,98053.00
2022-12-08T03:20:16.675Z,98046.06
2022-12-08T03:22:45.346Z,98041.78
2022-12-08T03:25:15.264Z,98044.44
2022-12-08T03:27:42.199Z,98036.41
2022-12-08T03:30:09.735Z,98033.69
2022-12-08T03:32:55.337Z,98029.41
2022-12-08T03:35:26.501Z,98014.59
2022-12-08T03:38:05.907Z,98017.75
2022-12-08T03:40:32.791Z,98016.78
2022-12-08T03:42:59.494Z,97999.16
2022-12-08T03:45:26.342Z,98016.91
2022-12-08T03:47:53.098Z,98026.44
2022-12-08T03:50:19.775Z,98024.03
2022-12-08T03:52:46.532Z,98012.94
2022-12-08T03:55:13.348Z,98015.72
2022-12-08T03:57:40.267Z,98029.53
2022-12-08T04:00:09.598Z,98018.16
2022-12-08T04:02:36.397Z,98016.41
2022-12-08T04:05:03.222Z,97997.78
2022-12-08T04:07:30.323Z,98018.16
2022-12-08T04:09:57.079Z,98015.38
2022-12-08T04:12:23.750Z,98008.38
2022-12-08T04:14:50.454Z,98011.72
2022-12-08T04:17:17.191Z,98003.19
2022-12-08T04:19:43.874Z,98003.75
2022-12-08T04:22:10.687Z,98011.47
2022-12-08T04:24:37.492Z,98001.88
2022-12-08T04:27:04.302Z,97999.50
2022-12-08T04:29:31.015Z,98008.84
2022-12-08T04:31:57.936Z,97998.78
2022-12-08T04:34:24.711Z,98004.56
2022-12-08T04:36:51.518Z,98002.91
2022-12-08T04:39:18.263Z,97998.47
2022-12-08T04:41:44.923Z,97999.72
2022-12-08T04:44:11.623Z,98003.81
2022-12-08T04:46:43.175Z,97993.44
2022-12-08T04:49:10.659Z,97990.66
2022-12-08T04:51:37.366Z,97986.31
2022-12-08T04:54:04.145Z,97982.81
2022-12-08T04:56:30.919Z,97991.59
2022-12-08T04:58:57.626Z,97992.63
2022-12-08T05:01:24.374Z,97989.00
2022-12-08T05:03:51.291Z,97986.41
2022-12-08T05:06:18.047Z,97990.88
2022-12-08T05:08:44.750Z,97981.47
2022-12-08T05:11:13.130Z,97979.75
2022-12-08T05:13:40.178Z,97970.13
2022-12-08T05:16:13.063Z,97968.34
2022-12-08T05:18:41.137Z,97981.28
2022-12-08T05:21:08.471Z,97975.00
2022-12-08T05:23:36.022Z,97970.47
2022-12-08T05:26:02.748Z,97962.66
2022-12-08T05:28:44.829Z,97965.22
2022-12-08T05:31:16.332Z,97969.63
2022-12-08T05:33:44.411Z,97954.22
2022-12-08T05:36:15.823Z,97959.22
2022-12-08T05:38:43.559Z,97960.81
2022-12-08T05:41:14.464Z,97951.22
2022-12-08T05:43:41.603Z,97944.19
2022-12-08T05:46:09.143Z,97951.72
2022-12-08T05:48:36.203Z,97943.84
2022-12-08T05:51:03.946Z,97947.34
2022-12-08T05:53:30.721Z,97950.72
2022-12-08T05:55:57.590Z,97951.78
2022-12-08T05:58:24.365Z,97963.00
2022-12-08T06:00:51.426Z,97954.44
2022-12-08T06:03:19.751Z,97959.44
2022-12-08T06:05:47.064Z,97950.66
2022-12-08T06:08:13.726Z,97967.03
2022-12-08T06:10:42.403Z,97965.28
2022-12-08T06:13:09.209Z,97953.94
2022-12-08T06:15:37.084Z,97968.69
2022-12-08T06:18:04.652Z,97974.75
2022-12-08T06:20:31.473Z,97978.31
2022-12-08T06:22:58.303Z,97975.72
2022-12-08T06:25:25.178Z,97966.41
2022-12-08T06:27:52.148Z,97983.59
2022-12-08T06:30:18.951Z,97981.09
2022-12-08T06:32:45.828Z,97967.56
2022-12-08T06:35:12.517Z,97970.75
2022-12-08T06:37:39.224Z,97951.44
2022-12-08T06:40:06.981Z,97946.19
2022-12-08T06:42:47.045Z,97937.44
2022-12-08T06:45:18.298Z,97940.84
2022-12-08T06:47:45.377Z,97947.59
2022-12-08T06:50:13.465Z,97949.34
2022-12-08T06:52:51.735Z,97946.66
2022-12-08T06:55:50.949Z,97955.28
2022-12-08T06:58:09.874Z,97964.09
2022-12-08T07:00:36.575Z,97963.34
2022-12-08T07:03:03.381Z,97962.69
2022-12-08T07:05:30.136Z,97962.31
2022-12-08T07:07:56.900Z,97962.19
2022-12-08T07:10:23.669Z,97972.63
2022-12-08T07:12:50.422Z,97958.75
2022-12-08T07:15:17.232Z,97959.50
2022-12-08T07:17:43.943Z,97968.94
2022-12-08T07:20:10.953Z,97969.97
2022-12-08T07:22:37.631Z,97976.84
2022-12-08T07:25:04.644Z,97974.41
2022-12-08T07:27:31.370Z,97966.47
2022-12-08T07:29:58.096Z,97981.03
2022-12-08T07:32:24.883Z,97985.59
2022-12-08T07:34:51.844Z,97977.94
2022-12-08T07:37:18.554Z,97982.88
2022-12-08T07:39:45.339Z,97977.53
2022-12-08T07:42:12.691Z,97982.66
2022-12-08T07:44:40.614Z,97970.41
2022-12-08T07:47:10.335Z,97975.41
2022-12-08T07:49:37.677Z,97974.38
2022-12-08T07:52:05.252Z,97952.84
2022-12-08T07:54:32.252Z,97965.59
2022-12-08T07:56:59.454Z,97975.75
2022-12-08T07:59:26.725Z,97970.69
2022-12-08T08:02:20.984Z,97990.72
2022-12-08T08:04:40.935Z,97982.22
2022-12-08T08:07:08.139Z,97986.03
2022-12-08T08:09:34.976Z,97989.22
2022-12-08T08:12:29.756Z,97981.19
2022-12-08T08:14:49.379Z,97979.44
2022-12-08T08:17:16.523Z,97975.75
2022-12-08T08:19:43.591Z,97967.97
2022-12-08T08:22:10.416Z,97983.78
2022-12-08T08:24:43.130Z,97968.88
2022-12-08T08:27:11.936Z,97961.06
2022-12-08T08:29:39.293Z,97970.16
2022-12-08T08:32:06.108Z,97974.34
2022-12-08T08:34:33.229Z,97968.25
2022-12-08T08:37:00.107Z,97975.78
2022-12-08T08:39:27.769Z,97988.94
2022-12-08T08:41:54.455Z,97996.75
2022-12-08T08:44:21.155Z,97992.38
2022-12-08T08:46:48.011Z,97995.97
2022-12-08T08:49:14.747Z,97995.53
2022-12-08T08:51:42.192Z,97973.59
2022-12-08T08:54:08.916Z,97980.34
2022-12-08T08:56:36.527Z,97990.75
2022-12-08T08:59:04.404Z,97985.44
2022-12-08T09:01:31.664Z,98005.47
2022-12-08T09:03:58.992Z,98005.69
2022-12-08T09:06:25.935Z,98010.09
2022-12-08T09:08:52.792Z,98000.63
2022-12-08T09:11:20.093Z,97999.84
2022-12-08T09:13:50.647Z,98005.00
2022-12-08T09:16:18.356Z,98009.13
2022-12-08T09:18:45.296Z,98004.94
2022-12-08T09:21:16.767Z,98003.97
2022-12-08T09:23:47.036Z,97987.47
2022-12-08T09:26:13.787Z,97980.75
2022-12-08T09:28:46.866Z,97975.06
2022-12-08T09:31:14.770Z,97963.72
2022-12-08T09:33:42.162Z,97957.25
2022-12-08T09:36:09.378Z,97954.31
2022-12-08T09:38:37.305Z,97960.41
2022-12-08T09:41:30.844Z,97969.19
2022-12-08T09:44:26.820Z,97970.22
2022-12-08T09:46:55.322Z,97966.75
2022-12-08T09:49:41.009Z,97973.69
2022-12-08T09:52:20.464Z,97968.38
2022-12-08T09:54:47.292Z,97961.22
2022-12-08T09:57:19.292Z,97953.75
2022-12-08T09:59:52.759Z,97957.63
2022-12-08T10:02:24.833Z,97935.84
2022-12-08T10:04:54.234Z,97942.84
2022-12-08T10:07:36.155Z,97960.03
2022-12-08T10:10:40.361Z,97947.34
2022-12-08T10:13:25.589Z,97965.38
2022-12-08T10:16:26.551Z,97957.88
2022-12-08T10:19:10.371Z,97967.81
2022-12-08T10:21:39.135Z,97964.47
2022-12-08T10:24:15.487Z,97947.59
2022-12-08T10:26:42.378Z,97940.13
2022-12-08T10:29:14.466Z,97929.78
2022-12-08T10:31:41.648Z,97935.06
2022-12-08T10:34:24.180Z,97940.88
2022-12-08T10:36:58.638Z,97923.75
2022-12-08T10:39:40.653Z,97914.06
2022-12-08T10:42:22.070Z,97912.38
2022-12-08T10:44:58.093Z,97936.03
2022-12-08T10:47:28.056Z,97939.59
2022-12-08T10:50:17.137Z,97924.16
2022-12-08T10:52:43.883Z,97919.63
2022-12-08T10:55:19.276Z,97918.78
2022-12-08T10:57:46.028Z,97920.22
2022-12-08T11:00:16.185Z,97917.56
2022-12-08T11:03:02.621Z,97922.06
2022-12-08T11:05:34.017Z,97897.09
2022-12-08T11:08:01.754Z,97901.22
2022-12-08T11:10:44.394Z,97922.63
2022-12-08T11:13:24.351Z,97887.78
2022-12-08T11:15:52.195Z,97900.91
2022-12-08T11:18:31.321Z,97905.97
2022-12-08T11:21:07.344Z,97897.63
2022-12-08T11:23:37.224Z,97907.28
2022-12-08T11:26:36.508Z,97896.19
2022-12-08T11:29:03.321Z,97872.84
2022-12-08T11:31:43.763Z,97886.66
2022-12-08T11:34:37.240Z,97885.22
2022-12-08T11:37:19.788Z,97884.38
2022-12-08T11:39:50.212Z,97880.13
2022-12-08T11:42:20.538Z,97886.22
2022-12-08T11:45:03.130Z,97878.78
2022-12-08T11:47:57.501Z,97865.22
2022-12-08T11:50:50.714Z,97872.88
2022-12-08T11:53:48.887Z,97872.63
2022-12-08T11:56:20.600Z,97872.88
2022-12-08T11:58:55.948Z,97863.25
2022-12-08T12:01:24.932Z,97860.94
2022-12-08T12:04:11.037Z,97850.88
2022-12-08T12:06:56.159Z,97861.25
2022-12-08T12:09:37.986Z,97855.63
2022-12-08T12:12:44.600Z,97851.94
2022-12-08T12:15:30.248Z,97844.09
2022-12-08T12:18:16.453Z,97843.22
2022-12-08T12:21:06.392Z,97860.78
2022-12-08T12:23:57.324Z,97852.25
2022-12-08T12:26:27.392Z,97855.34
2022-12-08T12:29:06.220Z,97861.38
2022-12-08T12:31:36.868Z,97859.09
2022-12-08T12:34:14.703Z,97842.63
2022-12-08T12:36:57.167Z,97855.03
2022-12-08T12:39:29.543Z,97847.91
2022-12-08T12:41:59.896Z,97862.09
2022-12-08T12:44:29.624Z,97852.31
2022-12-08T12:47:01.834Z,97853.47
2022-12-08T12:49:40.845Z,97851.97
2022-12-08T12:52:10.313Z,97835.38
2022-12-08T12:54:42.588Z,97825.56
2022-12-08T12:57:09.313Z,97832.00
2022-12-08T12:59:51.642Z,97834.28
2022-12-08T13:02:53.601Z,97828.44
2022-12-08T13:05:25.125Z,97825.44
2022-12-08T13:08:08.216Z,97814.72
2022-12-08T13:10:38.802Z,97812.03
2022-12-08T13:13:18.611Z,97815.34
2022-12-08T13:16:09.986Z,97807.50
2022-12-08T13:18:57.650Z,97805.72
2022-12-08T13:21:32.143Z,97792.94
2022-12-08T13:24:13.949Z,97803.94
2022-12-08T13:26:46.174Z,97799.63
2022-12-08T13:29:24.862Z,97793.78
2022-12-08T13:31:55.637Z,97804.88
2022-12-08T13:34:31.502Z,97807.31
2022-12-08T13:37:04.170Z,97792.53
2022-12-08T13:40:00.377Z,97797.63
2022-12-08T13:42:27.362Z,97803.78
2022-12-08T13:45:33.455Z,97791.69
2022-12-08T13:48:51.237Z,97793.47
2022-12-08T13:57:10.111Z,97791.22
2022-12-08T13:59:44.299Z,97799.94
2022-12-08T14:02:26.773Z,97785.38
2022-12-08T14:05:17.492Z,97779.56
2022-12-08T14:07:43.184Z,97784.28
2022-12-08T14:10:28.421Z,97791.81
2022-12-08T14:12:59.652Z,97793.59
2022-12-08T14:15:29.214Z,97782.28
2022-12-08T14:17:59.387Z,97792.22
2022-12-08T14:20:51.904Z,97795.63
2022-12-08T14:23:20.604Z,97790.13
2022-12-08T14:25:48.261Z,97785.63
2022-12-08T14:28:15.315Z,97788.28
2022-12-08T14:30:42.342Z,97793.47
2022-12-08T14:33:15.086Z,97790.28
2022-12-08T14:35:41.862Z,97787.84
2022-12-08T14:38:17.263Z,97793.91
2022-12-08T14:40:49.251Z,97794.00
2022-12-08T14:43:17.961Z,97794.44
2022-12-08T14:45:44.682Z,97793.66
2022-12-08T14:48:39.144Z,97788.81
2022-12-08T14:51:06.030Z,97795.94
2022-12-08T14:53:36.852Z,97804.94
2022-12-08T14:56:27.849Z,97792.00
2022-12-08T14:59:14.369Z,97799.03
2022-12-08T15:01:43.103Z,97789.59
2022-12-08T15:04:12.881Z,97796.63
2022-12-08T15:06:53.913Z,97777.97
2022-12-08T15:09:38.898Z,97796.06
2022-12-08T15:12:14.862Z,97798.75
2022-12-08T15:14:44.226Z,97798.84
2022-12-08T15:17:35.372Z,97795.66
2022-12-08T15:20:03.720Z,97789.88
2022-12-08T15:22:31.506Z,97782.22
2022-12-08T15:24:58.810Z,97784.91
2022-12-08T15:27:25.821Z,97784.06
2022-12-08T15:29:53.780Z,97778.91
2022-12-08T15:32:23.106Z,97778.91
2022-12-08T15:34:50.471Z,97779.91
2022-12-08T15:37:26.402Z,97783.56
2022-12-08T15:39:53.501Z,97777.50
2022-12-08T15:42:20.509Z,97762.31
2022-12-08T15:44:47.440Z,97781.09
2022-12-08T15:47:20.018Z,97782.66
2022-12-08T15:49:48.204Z,97776.44
2022-12-08T15:52:20.643Z,97775.47
2022-12-08T15:54:47.471Z,97780.69
2022-12-08T15:57:59.147Z,97771.34
2022-12-08T16:04:02.730Z,97792.06
2022-12-08T16:07:12.491Z,97798.06
2022-12-08T16:09:12.394Z,97793.81
2022-12-08T16:12:08.386Z,97811.00
2022-12-08T16:17:24.939Z,97789.53
2022-12-08T16:19:51.918Z,97804.84
2022-12-08T16:25:18.208Z,97799.53
2022-12-08T16:28:12.357Z,97801.22
2022-12-08T16:30:34.038Z,97798.84
2022-12-08T16:33:04.756Z,97801.31
2022-12-08T16:35:32.702Z,97805.72
2022-12-08T16:38:00.056Z,97799.50
2022-12-08T16:40:28.130Z,97788.25
2022-12-08T16:42:57.598Z,97799.50
2022-12-08T16:45:33.323Z,97794.47
2022-12-08T16:48:02.106Z,97784.66
2022-12-08T16:50:33.051Z,97796.94
2022-12-08T16:53:04.218Z,97795.31
2022-12-08T16:55:33.919Z,97799.91
2022-12-08T16:58:04.116Z,97792.13
2022-12-08T17:00:37.174Z,97784.16
2022-12-08T17:03:08.570Z,97781.78
2022-12-08T17:05:36.940Z,97781.78
2022-12-08T17:08:06.667Z,97776.72
2022-12-08T17:10:38.744Z,97775.09
2022-12-08T17:13:06.838Z,97770.72
2022-12-08T17:15:34.044Z,97749.94
2022-12-08T17:18:03.460Z,97768.63
2022-12-08T17:20:31.503Z,97765.50
2022-12-08T17:22:59.701Z,97767.25
2022-12-08T17:25:28.068Z,97765.63
2022-12-08T17:27:56.935Z,97768.22
2022-12-08T17:30:24.245Z,97757.50
2022-12-08T17:32:53.566Z,97769.16
2022-12-08T17:35:21.880Z,97771.06
2022-12-08T17:37:49.147Z,97763.41
2022-12-08T17:40:18.072Z,97772.03
2022-12-08T17:42:47.712Z,97766.72
2022-12-08T17:45:18.304Z,97767.72
2022-12-08T17:47:46.548Z,97766.03
2022-12-08T17:50:13.524Z,97767.00
2022-12-08T17:52:40.296Z,97715.63
2022-12-08T17:55:08.699Z,97750.72
2022-12-08T17:57:36.794Z,97768.03
2022-12-08T18:00:05.328Z,97782.97
2022-12-08T18:02:38.736Z,97755.91
2022-12-08T18:05:06.256Z,97773.38
2022-12-08T18:07:32.958Z,97769.47
2022-12-08T18:09:59.810Z,97767.91
2022-12-08T18:12:26.583Z,97760.66
2022-12-08T18:14:53.339Z,97765.94
2022-12-08T18:17:20.687Z,97761.75
2022-12-08T18:19:47.529Z,97767.28
2022-12-08T18:22:15.961Z,97766.69
2022-12-08T18:24:43.020Z,97778.09
2022-12-08T18:27:09.827Z,97779.25
2022-12-08T18:29:36.805Z,97771.66
2022-12-08T18:32:03.708Z,97772.63
2022-12-08T18:34:30.500Z,97759.66
2022-12-08T18:36:57.303Z,97757.22
2022-12-08T18:39:27.462Z,97761.78
2022-12-08T18:41:58.627Z,97754.22
2022-12-08T18:44:25.603Z,97760.38
2022-12-08T18:46:52.364Z,97751.22
2022-12-08T18:49:20.021Z,97755.75
2022-12-08T18:51:47.682Z,97754.38
2022-12-08T18:54:14.426Z,97753.78
2022-12-08T18:56:41.261Z,97740.91
2022-12-08T18:59:10.999Z,97733.22
2022-12-08T19:01:39.369Z,97705.25
2022-12-08T19:06:56.462Z,97734.09
2022-12-08T19:09:25.425Z,97736.91
2022-12-08T19:11:52.680Z,97733.53
2022-12-08T19:14:25.788Z,97718.41
2022-12-08T19:16:55.043Z,97707.66
2022-12-08T19:19:22.011Z,97724.84
2022-12-08T19:21:49.396Z,97709.56
2022-12-08T19:24:16.800Z,97721.63
2022-12-08T19:26:43.448Z,97711.94
2022-12-08T19:29:10.722Z,97711.06
2022-12-08T19:31:37.531Z,97725.88
2022-12-08T19:34:05.704Z,97730.28
2022-12-08T19:36:35.544Z,97730.56
2022-12-08T19:39:23.106Z,97740.97
2022-12-08T19:42:09.371Z,97741.09
2022-12-08T19:44:54.386Z,97742.03
2022-12-08T19:47:23.954Z,97740.59
2022-12-08T19:49:51.412Z,97744.19
2022-12-08T19:52:18.283Z,97741.97
2022-12-08T19:54:45.840Z,97749.94
2022-12-08T19:57:12.879Z,97748.38
2022-12-08T19:59:40.115Z,97749.53
2022-12-08T20:02:07.499Z,97750.47
2022-12-08T20:04:34.425Z,97738.78
2022-12-08T20:07:01.166Z,97726.78
2022-12-08T20:09:27.970Z,97730.75
2022-12-08T20:11:55.020Z,97737.84
2022-12-08T20:14:23.511Z,97715.84
2022-12-08T20:16:50.699Z,97726.88
2022-12-08T20:19:17.667Z,97739.00
2022-12-08T20:21:44.444Z,97741.69
2022-12-08T20:24:11.217Z,97741.75
2022-12-08T20:26:38.024Z,97705.28
2022-12-08T20:29:04.703Z,97725.81
2022-12-08T20:31:32.745Z,97728.13
2022-12-08T20:34:00.254Z,97720.22
2022-12-08T20:36:27.452Z,97713.56
2022-12-08T20:38:54.547Z,97725.41
2022-12-08T20:41:23.501Z,97722.06
2022-12-08T20:43:51.289Z,97737.44
2022-12-08T20:46:19.215Z,97733.16
2022-12-08T20:48:46.394Z,97735.47
2022-12-08T20:51:18.070Z,97735.38
2022-12-08T20:53:45.313Z,97744.72
2022-12-08T20:56:15.939Z,97745.56
2022-12-08T20:58:42.975Z,97743.56
2022-12-08T21:01:12.037Z,97726.38
2022-12-08T21:03:39.331Z,97735.28
2022-12-08T21:06:07.177Z,97724.22
2022-12-08T21:08:34.884Z,97726.94
2022-12-08T21:11:02.013Z,97730.09
2022-12-08T21:13:29.474Z,97731.75
2022-12-08T21:15:56.729Z,97742.91
2022-12-08T21:18:32.136Z,97744.66
2022-12-08T21:21:07.170Z,97746.56
2022-12-08T21:23:34.720Z,97740.66
2022-12-08T21:26:01.674Z,97738.94
2022-12-08T21:28:28.904Z,97741.63
2022-12-08T21:30:55.968Z,97726.09
2022-12-08T21:33:22.855Z,97728.53
2022-12-08T21:35:49.860Z,97729.19
2022-12-08T21:38:16.812Z,97740.28
2022-12-08T21:40:43.588Z,97737.75
2022-12-08T21:43:10.441Z,97731.75
2022-12-08T21:45:37.203Z,97707.97
2022-12-08T21:48:10.932Z,97736.63
2022-12-08T21:50:38.972Z,97728.16
2022-12-08T21:53:05.641Z,97735.84
2022-12-08T21:55:32.567Z,97732.47
2022-12-08T21:58:00.962Z,97742.91
2022-12-08T22:00:28.150Z,97731.97
2022-12-08T22:02:55.229Z,97734.31
2022-12-08T22:05:22.124Z,97728.19
2022-12-08T22:07:48.925Z,97716.94
2022-12-08T22:10:16.091Z,97723.66
2022-12-08T22:12:42.980Z,97724.50
2022-12-08T22:15:11.394Z,97725.34
2022-12-08T22:17:43.424Z,97724.47
2022-12-08T22:20:13.441Z,97721.94
2022-12-08T22:22:41.348Z,97721.06
2022-12-08T22:25:11.930Z,97714.13
2022-12-08T22:27:40.115Z,97711.38
2022-12-08T22:30:08.312Z,97688.41
2022-12-08T22:32:35.690Z,97710.41
2022-12-08T22:35:02.379Z,97711.66
2022-12-08T22:37:29.246Z,97710.13
2022-12-08T22:39:55.928Z,97700.78
2022-12-08T22:42:22.650Z,97713.53
2022-12-08T22:44:49.463Z,97713.41
2022-12-08T22:47:16.153Z,97713.28
2022-12-08T22:49:42.862Z,97711.50
2022-12-08T22:52:09.826Z,97705.44
2022-12-08T22:54:36.844Z,97689.94
2022-12-08T22:57:03.797Z,97694.88
2022-12-08T22:59:30.639Z,97688.31
2022-12-08T23:01:57.415Z,97703.53
2022-12-08T23:04:24.179Z,97697.34
2022-12-08T23:06:51.207Z,97697.47
2022-12-08T23:09:18.042Z,97708.09
2022-12-08T23:11:44.832Z,97704.91
2022-12-08T23:14:11.537Z,97709.63
2022-12-08T23:16:38.599Z,97699.22
2022-12-08T23:19:05.895Z,97704.63
2022-12-08T23:21:32.986Z,97689.00
2022-12-08T23:24:01.270Z,97685.53
2022-12-08T23:26:29.794Z,97690.44
2022-12-08T23:28:57.322Z,97692.19
2022-12-08T23:31:24.853Z,97686.13
2022-12-08T23:33:52.448Z,97689.81
2022-12-08T23:36:20.935Z,97688.03
2022-12-08T23:38:48.332Z,97690.50
2022-12-08T23:41:16.199Z,97680.94
2022-12-08T23:43:45.616Z,97668.00
2022-12-08T23:46:13.155Z,97679.13
2022-12-08T23:48:40.541Z,97672.22
2022-12-08T23:51:07.416Z,97666.06
2022-12-08T23:53:34.886Z,97669.44
2022-12-08T23:56:10.623Z,97664.34
2022-12-08T23:58:38.044Z,97653.94
